createdAt,value
2022-10-21T00:00:40.933Z,98690.16
2022-10-21T00:04:04.036Z,98696.83
2022-10-21T00:07:06.992Z,98700.65
2022-10-21T00:10:10.395Z,98700.89
2022-10-21T00:13:13.302Z,98698.52
2022-10-21T00:16:18.642Z,98695.11
2022-10-21T00:19:21.491Z,98695.16
2022-10-21T00:22:24.508Z,98703.27
2022-10-21T00:25:27.507Z,98707.61
2022-10-21T00:28:30.838Z,98706.33
2022-10-21T00:31:34.855Z,98706.05
2022-10-21T00:34:37.777Z,98700.45
2022-10-21T00:37:40.924Z,98699.79
2022-10-21T00:40:43.940Z,98694.55
2022-10-21T00:44:14.618Z,98694.44
2022-10-21T00:47:22.204Z,98693.84
2022-10-21T00:50:38.844Z,98688.36
2022-10-21T00:53:48.062Z,98685.13
2022-10-21T01:00:02.507Z,98674.64
2022-10-21T01:03:05.496Z,98676.73
2022-10-21T01:06:11.177Z,98677.02
2022-10-21T01:09:15.048Z,98677.89
2022-10-21T01:12:30.207Z,98678.34
2022-10-21T01:15:42.430Z,98682.14
2022-10-21T01:18:59.041Z,98671.22
2022-10-21T01:22:04.948Z,98663.83
2022-10-21T01:25:22.625Z,98662.63
2022-10-21T01:28:31.211Z,98655.16
2022-10-21T01:31:47.990Z,98653.66
2022-10-21T01:35:13.815Z,98644.14
2022-10-21T01:38:42.293Z,98644.39
2022-10-21T01:42:00.562Z,98639.01
2022-10-21T01:45:27.291Z,98633.99
2022-10-21T01:48:38.291Z,98630.88
2022-10-21T01:51:42.851Z,98630.15
2022-10-21T01:54:52.983Z,98629.19
2022-10-21T01:58:03.855Z,98629.96
2022-10-21T02:01:10.446Z,98628.30
2022-10-21T02:04:16.205Z,98631.57
2022-10-21T02:07:21.439Z,98620.02
2022-10-21T02:10:28.258Z,98609.27
2022-10-21T02:13:36.179Z,98611.63
2022-10-21T02:16:41.549Z,98615.42
2022-10-21T02:19:44.592Z,98603.61
2022-10-21T02:22:49.235Z,98603.97
2022-10-21T02:25:52.632Z,98613.73
2022-10-21T02:28:58.238Z,98612.28
2022-10-21T02:32:23.248Z,98617.39
2022-10-21T02:35:46.396Z,98606.47
2022-10-21T02:38:54.133Z,98607.58
2022-10-21T02:42:00.358Z,98612.51
2022-10-21T02:45:04.737Z,98606.65
2022-10-21T02:48:07.834Z,98598.08
2022-10-21T02:51:11.409Z,98604.44
2022-10-21T02:54:20.692Z,98607.77
2022-10-21T02:57:23.643Z,98604.86
2022-10-21T03:00:30.738Z,98598.83
2022-10-21T03:03:35.790Z,98586.23
2022-10-21T03:06:38.743Z,98581.29
2022-10-21T03:09:41.809Z,98572.74
2022-10-21T03:12:44.760Z,98569.37
2022-10-21T03:15:49.115Z,98565.69
2022-10-21T03:18:52.036Z,98563.86
2022-10-21T03:21:54.965Z,98568.91
2022-10-21T03:24:57.949Z,98572.77
2022-10-21T03:28:00.974Z,98572.83
2022-10-21T03:31:03.981Z,98567.16
2022-10-21T03:34:06.956Z,98562.73
2022-10-21T03:37:10.018Z,98561.02
2022-10-21T03:40:13.061Z,98551.34
2022-10-21T03:43:16.008Z,98551.10
2022-10-21T03:46:19.048Z,98549.13
2022-10-21T03:49:22.073Z,98541.46
2022-10-21T03:52:25.111Z,98546.65
2022-10-21T03:55:28.019Z,98548.89
2022-10-21T03:58:31.108Z,98550.96
2022-10-21T04:01:34.189Z,98548.63
2022-10-21T04:04:37.340Z,98549.30
2022-10-21T04:07:40.600Z,98544.59
2022-10-21T04:10:45.883Z,98536.91
2022-10-21T04:13:49.370Z,98545.91
2022-10-21T04:17:02.105Z,98553.76
2022-10-21T04:20:06.225Z,98550.15
2022-10-21T04:23:09.126Z,98543.16
2022-10-21T04:26:12.214Z,98540.35
2022-10-21T04:29:15.105Z,98531.15
2022-10-21T04:32:18.175Z,98527.12
2022-10-21T04:35:21.120Z,98525.55
2022-10-21T04:38:27.189Z,98523.55
2022-10-21T04:41:30.342Z,98521.46
2022-10-21T04:44:33.354Z,98516.98
2022-10-21T04:47:36.566Z,98520.14
2022-10-21T04:50:39.838Z,98522.28
2022-10-21T04:53:42.877Z,98521.76
2022-10-21T04:56:45.780Z,98522.03
2022-10-21T04:59:48.775Z,98519.09
2022-10-21T05:02:51.693Z,98508.08
2022-10-21T05:05:54.667Z,98516.05
2022-10-21T05:08:57.755Z,98515.55
2022-10-21T05:12:00.896Z,98518.73
2022-10-21T05:15:04.326Z,98516.01
2022-10-21T05:18:07.350Z,98514.83
2022-10-21T05:21:10.361Z,98514.81
2022-10-21T05:24:14.828Z,98509.66
2022-10-21T05:27:17.808Z,98496.95
2022-10-21T05:30:21.278Z,98494.08
2022-10-21T05:33:24.862Z,98514.44
2022-10-21T05:36:27.869Z,98519.09
2022-10-21T05:39:30.858Z,98513.94
2022-10-21T05:42:34.078Z,98517.43
2022-10-21T05:45:37.020Z,98506.48
2022-10-21T05:48:40.273Z,98517.68
2022-10-21T05:51:44.819Z,98509.64
2022-10-21T05:54:47.796Z,98516.77
2022-10-21T06:00:55.408Z,98517.05
2022-10-21T06:03:58.482Z,98525.77
2022-10-21T06:07:01.503Z,98521.90
2022-10-21T06:10:04.677Z,98511.44
2022-10-21T06:13:07.637Z,98504.65
2022-10-21T06:16:12.352Z,98513.38
2022-10-21T06:19:15.361Z,98516.88
2022-10-21T06:22:18.495Z,98521.40
2022-10-21T06:25:21.828Z,98514.83
2022-10-21T06:28:25.429Z,98513.69
2022-10-21T06:31:29.036Z,98516.39
2022-10-21T06:34:32.049Z,98511.02
2022-10-21T06:37:35.051Z,98506.41
2022-10-21T06:40:38.463Z,98512.15
2022-10-21T06:43:42.925Z,98512.27
2022-10-21T06:46:46.247Z,98509.64
2022-10-21T06:49:49.194Z,98510.40
2022-10-21T06:52:52.080Z,98505.75
2022-10-21T06:56:09.235Z,98497.01
2022-10-21T06:59:12.164Z,98489.92
2022-10-21T07:02:15.091Z,98487.64
2022-10-21T07:05:18.195Z,98485.67
2022-10-21T07:08:22.509Z,98466.11
2022-10-21T07:11:32.869Z,98460.78
2022-10-21T07:14:35.789Z,98448.60
2022-10-21T07:17:38.804Z,98441.37
2022-10-21T07:20:41.925Z,98435.29
2022-10-21T07:23:46.278Z,98436.98
2022-10-21T07:26:49.686Z,98437.42
2022-10-21T07:29:52.561Z,98428.80
2022-10-21T07:32:55.494Z,98428.52
2022-10-21T07:36:07.670Z,98423.33
2022-10-21T07:39:17.427Z,98429.95
2022-10-21T07:42:21.506Z,98432.48
2022-10-21T07:45:24.485Z,98431.56
2022-10-21T07:48:27.355Z,98430.55
2022-10-21T07:51:31.502Z,98426.63
2022-10-21T07:54:37.387Z,98423.88
2022-10-21T07:57:41.103Z,98412.86
2022-10-21T08:00:44.666Z,98407.44
2022-10-21T08:03:48.686Z,98407.05
2022-10-21T08:06:51.657Z,98408.19
2022-10-21T08:09:54.532Z,98399.09
2022-10-21T08:12:57.392Z,98395.65
2022-10-21T08:16:01.076Z,98393.42
2022-10-21T08:19:06.076Z,98391.52
2022-10-21T08:22:09.623Z,98382.67
2022-10-21T08:25:16.745Z,98369.19
2022-10-21T08:28:20.982Z,98367.05
2022-10-21T08:31:24.042Z,98368.11
2022-10-21T08:34:26.942Z,98366.54
2022-10-21T08:37:29.836Z,98356.11
2022-10-21T08:40:44.395Z,98345.36
2022-10-21T08:43:47.489Z,98343.92
2022-10-21T08:46:58.085Z,98338.41
2022-10-21T08:50:12.756Z,98329.05
2022-10-21T08:53:23.250Z,98327.05
2022-10-21T08:56:26.300Z,98317.49
2022-10-21T08:59:29.197Z,98314.38
2022-10-21T09:02:34.829Z,98313.59
2022-10-21T09:06:08.881Z,98313.84
2022-10-21T09:09:44.325Z,98319.27
2022-10-21T09:13:13.274Z,98314.66
2022-10-21T09:17:12.194Z,98313.50
2022-10-21T09:20:51.086Z,98310.88
2022-10-21T09:24:36.256Z,98309.27
2022-10-21T09:27:54.981Z,98305.39
2022-10-21T09:31:02.695Z,98305.01
2022-10-21T09:34:15.204Z,98302.66
2022-10-21T09:37:31.689Z,98297.36
2022-10-21T09:40:37.854Z,98289.48
2022-10-21T09:43:40.798Z,98281.64
2022-10-21T09:46:47.707Z,98281.58
2022-10-21T09:50:07.328Z,98282.77
2022-10-21T09:53:20.367Z,98275.80
2022-10-21T09:56:30.088Z,98281.31
2022-10-21T09:59:33.651Z,98277.09
2022-10-21T10:02:40.059Z,98270.46
2022-10-21T10:05:49.284Z,98270.80
2022-10-21T10:08:52.419Z,98274.96
2022-10-21T10:11:58.392Z,98275.92
2022-10-21T10:15:39.386Z,98279.00
2022-10-21T10:18:44.415Z,98280.74
2022-10-21T10:22:10.223Z,98286.81
2022-10-21T10:25:13.699Z,98286.20
2022-10-21T10:28:24.001Z,98286.33
2022-10-21T10:31:34.052Z,98285.02
2022-10-21T10:34:48.147Z,98269.42
2022-10-21T10:37:53.057Z,98272.73
2022-10-21T10:41:05.720Z,98264.51
2022-10-21T10:44:18.404Z,98268.20
2022-10-21T10:47:26.673Z,98267.20
2022-10-21T10:50:43.043Z,98267.14
2022-10-21T10:53:45.936Z,98258.13
2022-10-21T10:57:03.457Z,98254.13
2022-10-21T11:00:14.286Z,98250.14
2022-10-21T11:03:29.841Z,98246.14
2022-10-21T11:06:43.647Z,98245.27
2022-10-21T11:09:49.275Z,98238.44
2022-10-21T11:12:52.979Z,98230.77
2022-10-21T11:16:14.474Z,98231.46
2022-10-21T11:19:34.702Z,98228.95
2022-10-21T11:23:02.002Z,98220.71
2022-10-21T11:26:27.558Z,98212.31
2022-10-21T11:29:46.135Z,98203.52
2022-10-21T11:32:58.180Z,98195.20
2022-10-21T11:36:11.826Z,98197.55
2022-10-21T11:39:30.906Z,98195.19
2022-10-21T11:42:43.791Z,98192.83
2022-10-21T11:46:01.980Z,98184.75
2022-10-21T11:49:22.942Z,98179.41
2022-10-21T11:52:37.205Z,98173.05
2022-10-21T11:56:00.608Z,98174.69
2022-10-21T11:59:18.684Z,98171.48
2022-10-21T12:02:25.036Z,98158.75
2022-10-21T12:05:36.958Z,98151.37
2022-10-21T12:08:51.638Z,98155.04
2022-10-21T12:12:00.579Z,98150.80
2022-10-21T12:15:14.668Z,98147.95
2022-10-21T12:18:22.152Z,98136.64
2022-10-21T12:21:28.767Z,98123.91
2022-10-21T12:24:34.655Z,98113.52
2022-10-21T12:27:58.967Z,98111.00
2022-10-21T12:31:17.814Z,98118.06
2022-10-21T12:34:21.767Z,98124.58
2022-10-21T12:37:57.127Z,98119.33
2022-10-21T12:41:21.593Z,98120.42
2022-10-21T12:44:27.471Z,98121.83
2022-10-21T12:47:40.298Z,98120.27
2022-10-21T12:50:45.102Z,98124.19
2022-10-21T12:53:52.825Z,98122.54
2022-10-21T12:57:04.777Z,98119.40
2022-10-21T13:03:41.006Z,98091.73
2022-10-21T13:06:56.461Z,98089.22
2022-10-21T13:09:59.211Z,98095.81
2022-10-21T13:13:30.517Z,98113.96
2022-10-21T13:16:40.838Z,98109.88
2022-10-21T13:19:43.849Z,98104.60
2022-10-21T13:23:02.050Z,98102.02
2022-10-21T13:26:19.630Z,98113.73
2022-10-21T13:29:29.567Z,98115.20
2022-10-21T13:32:37.635Z,98109.54
2022-10-21T13:35:46.460Z,98114.89
2022-10-21T13:38:52.482Z,98110.09
2022-10-21T13:41:58.920Z,98105.61
2022-10-21T13:45:08.224Z,98107.80
2022-10-21T13:48:18.260Z,98107.79
2022-10-21T13:51:27.152Z,98115.34
2022-10-21T13:54:35.501Z,98115.81
2022-10-21T13:57:38.730Z,98116.11
2022-10-21T14:00:41.988Z,98113.29
2022-10-21T14:03:45.357Z,98115.41
2022-10-21T14:06:57.030Z,98116.36
2022-10-21T14:10:00.121Z,98123.27
2022-10-21T14:13:04.513Z,98126.64
2022-10-21T14:16:08.885Z,98125.63
2022-10-21T14:19:21.868Z,98129.39
2022-10-21T14:22:26.883Z,98131.04
2022-10-21T14:25:32.628Z,98127.19
2022-10-21T14:28:37.302Z,98120.98
2022-10-21T14:31:44.223Z,98121.30
2022-10-21T14:34:58.368Z,98123.81
2022-10-21T14:38:03.690Z,98127.42
2022-10-21T14:41:11.326Z,98131.04
2022-10-21T14:44:19.644Z,98127.83
2022-10-21T14:47:25.481Z,98124.75
2022-10-21T14:50:28.432Z,98127.11
2022-10-21T14:53:35.678Z,98123.59
2022-10-21T14:56:42.858Z,98124.69
2022-10-21T14:59:50.330Z,98117.61
2022-10-21T15:02:54.369Z,98117.70
2022-10-21T15:06:25.227Z,98115.19
2022-10-21T15:09:28.873Z,98120.61
2022-10-21T15:12:50.499Z,98120.05
2022-10-21T15:15:55.998Z,98122.11
2022-10-21T15:18:59.473Z,98124.94
2022-10-21T15:22:04.230Z,98129.42
2022-10-21T15:25:16.913Z,98135.48
2022-10-21T15:28:20.529Z,98139.55
2022-10-21T15:31:26.947Z,98140.02
2022-10-21T15:34:32.536Z,98138.54
2022-10-21T15:37:35.657Z,98142.08
2022-10-21T15:40:38.508Z,98142.23
2022-10-21T15:43:43.014Z,98138.46
2022-10-21T15:46:47.351Z,98143.33
2022-10-21T15:49:50.775Z,98147.96
2022-10-21T15:55:56.790Z,98136.17
2022-10-21T15:58:59.659Z,98128.95
2022-10-21T16:02:02.630Z,98132.50
2022-10-21T16:05:05.755Z,98138.21
2022-10-21T16:08:12.374Z,98135.86
2022-10-21T16:11:29.658Z,98136.56
2022-10-21T16:14:42.831Z,98134.85
2022-10-21T16:17:49.488Z,98137.60
2022-10-21T16:20:54.001Z,98141.44
2022-10-21T16:23:58.456Z,98142.85
2022-10-21T16:27:01.402Z,98147.10
2022-10-21T16:30:24.950Z,98154.88
2022-10-21T16:33:27.896Z,98149.61
2022-10-21T16:36:36.682Z,98149.54
2022-10-21T16:39:39.525Z,98150.95
2022-10-21T16:42:42.532Z,98152.52
2022-10-21T16:45:45.682Z,98153.30
2022-10-21T16:48:48.709Z,98156.52
2022-10-21T16:51:57.449Z,98160.85
2022-10-21T16:55:00.359Z,98160.06
2022-10-21T16:58:03.367Z,98162.50
2022-10-21T17:01:08.417Z,98158.50
2022-10-21T17:04:14.249Z,98159.68
2022-10-21T17:07:17.330Z,98162.90
2022-10-21T17:10:20.551Z,98164.46
2022-10-21T17:13:23.413Z,98159.75
2022-10-21T17:16:26.358Z,98163.52
2022-10-21T17:19:29.330Z,98158.10
2022-10-21T17:22:32.461Z,98155.35
2022-10-21T17:25:35.895Z,98158.10
2022-10-21T17:28:38.765Z,98152.68
2022-10-21T17:31:43.566Z,98149.70
2022-10-21T17:34:46.505Z,98152.36
2022-10-21T17:37:50.401Z,98154.10
2022-10-21T17:40:53.971Z,98152.37
2022-10-21T17:43:57.237Z,98143.97
2022-10-21T17:47:00.295Z,98142.31
2022-10-21T17:50:03.664Z,98142.24
2022-10-21T17:53:07.095Z,98140.20
2022-10-21T17:56:11.301Z,98134.70
2022-10-21T17:59:14.156Z,98123.29
2022-10-21T18:02:17.036Z,98118.52
2022-10-21T18:05:20.090Z,98113.09
2022-10-21T18:08:24.141Z,98107.05
2022-10-21T18:11:26.968Z,98100.05
2022-10-21T18:14:29.894Z,98100.52
2022-10-21T18:17:33.973Z,98097.30
2022-10-21T18:20:36.884Z,98093.85
2022-10-21T18:23:43.248Z,98085.29
2022-10-21T18:26:46.125Z,98084.18
2022-10-21T18:29:49.206Z,98078.37
2022-10-21T18:32:52.106Z,98070.75
2022-10-21T18:35:54.951Z,98063.45
2022-10-21T18:39:01.545Z,98060.06
2022-10-21T18:42:07.255Z,98058.66
2022-10-21T18:45:10.395Z,98059.44
2022-10-21T18:48:13.340Z,98071.79
2022-10-21T18:51:17.926Z,98071.86
2022-10-21T18:54:20.913Z,98078.31
2022-10-21T18:57:24.021Z,98080.04
2022-10-21T19:00:27.682Z,98077.92
2022-10-21T19:03:30.847Z,98071.33
2022-10-21T19:06:43.801Z,98067.95
2022-10-21T19:09:47.283Z,98072.76
2022-10-21T19:12:52.455Z,98068.84
2022-10-21T19:19:14.212Z,98065.80
2022-10-21T19:22:18.410Z,98061.64
2022-10-21T19:25:23.724Z,98064.71
2022-10-21T19:28:26.633Z,98067.23
2022-10-21T19:31:31.444Z,98076.35
2022-10-21T19:34:36.606Z,98079.89
2022-10-21T19:37:40.158Z,98079.03
2022-10-21T19:40:43.175Z,98075.58
2022-10-21T19:44:00.440Z,98076.84
2022-10-21T19:47:03.358Z,98076.85
2022-10-21T19:50:07.035Z,98078.58
2022-10-21T19:53:09.983Z,98086.59
2022-10-21T19:56:14.168Z,98092.46
2022-10-21T20:02:20.839Z,98085.97
2022-10-21T20:05:23.863Z,98081.89
2022-10-21T20:11:35.040Z,98086.91
2022-10-21T20:14:38.217Z,98088.95
2022-10-21T20:17:41.468Z,98083.86
2022-10-21T20:20:44.513Z,98084.96
2022-10-21T20:23:51.756Z,98088.96
2022-10-21T20:26:58.369Z,98082.13
2022-10-21T20:30:04.970Z,98085.83
2022-10-21T20:33:10.492Z,98084.56
2022-10-21T20:36:34.055Z,98081.82
2022-10-21T20:39:37.291Z,98081.66
2022-10-21T20:42:40.500Z,98072.02
2022-10-21T20:45:43.876Z,98071.38
2022-10-21T20:48:49.250Z,98075.45
2022-10-21T20:51:52.149Z,98073.17
2022-10-21T20:58:13.468Z,98063.44
2022-10-21T21:01:20.325Z,98067.12
2022-10-21T21:04:25.379Z,98061.86
2022-10-21T21:07:28.292Z,98057.54
2022-10-21T21:10:34.919Z,98062.02
2022-10-21T21:13:41.997Z,98062.41
2022-10-21T21:16:47.463Z,98055.90
2022-10-21T21:19:50.537Z,98057.84
2022-10-21T21:22:53.430Z,98068.67
2022-10-21T21:26:26.971Z,98069.08
2022-10-21T21:29:31.906Z,98059.42
2022-10-21T21:32:34.977Z,98055.02
2022-10-21T21:35:38.101Z,98056.42
2022-10-21T21:38:41.924Z,98069.46
2022-10-21T21:41:44.833Z,98075.52
2022-10-21T21:44:47.782Z,98076.14
2022-10-21T21:47:50.652Z,98079.45
2022-10-21T21:51:09.684Z,98081.87
2022-10-21T21:54:12.601Z,98086.34
2022-10-21T21:57:27.381Z,98076.45
2022-10-21T22:00:31.638Z,98066.08
2022-10-21T22:03:34.567Z,98059.23
2022-10-21T22:06:38.535Z,98054.68
2022-10-21T22:09:41.493Z,98053.59
2022-10-21T22:12:44.979Z,98037.89
2022-10-21T22:15:48.604Z,98039.29
2022-10-21T22:18:51.914Z,98034.59
2022-10-21T22:21:54.838Z,98035.60
2022-10-21T22:24:57.636Z,98040.15
2022-10-21T22:28:00.470Z,98036.08
2022-10-21T22:31:07.083Z,98031.98
2022-10-21T22:34:11.894Z,98025.54
2022-10-21T22:37:15.054Z,98014.32
2022-10-21T22:40:17.945Z,98008.59
2022-10-21T22:43:20.961Z,98012.58
2022-10-21T22:46:39.403Z,98011.88
2022-10-21T22:49:43.729Z,98005.98
2022-10-21T22:52:47.255Z,98005.77
2022-10-21T22:55:50.434Z,98011.02
2022-10-21T22:58:53.973Z,98014.30
2022-10-21T23:01:56.819Z,98000.87
2022-10-21T23:04:59.867Z,97997.50
2022-10-21T23:08:02.762Z,98001.35
2022-10-21T23:11:05.788Z,98001.49
2022-10-21T23:14:09.601Z,97997.16
2022-10-21T23:17:12.497Z,98000.40
2022-10-21T23:20:15.475Z,98007.62
2022-10-21T23:23:18.415Z,98012.56
2022-10-21T23:26:21.540Z,98015.31
2022-10-21T23:29:24.439Z,98011.39
2022-10-21T23:32:29.511Z,98013.90
2022-10-21T23:35:32.824Z,98013.11
2022-10-21T23:38:35.694Z,98021.75
2022-10-21T23:41:38.551Z,98022.15
2022-10-21T23:44:41.585Z,98020.19
2022-10-21T23:47:44.590Z,98015.40
2022-10-21T23:50:47.612Z,98014.06
2022-10-21T23:53:50.562Z,98016.10
2022-10-21T23:56:53.467Z,98018.86
2022-10-21T23:59:56.400Z,98023.17
